Tacloban, Philippines
Current Conditions -  °F | °C
As of 9:00 PM on Thursday 30 Oct 2014 (Local Time) from RPVM Reporting Station
Broken Clouds Broken Clouds  
Wind Chill: 82°   Ceiling: 25000
Heat Index: 89°   Visibility: 6mi
Dew Point: 75°   Wind: 3mph
Humidity: 79%   Direction: 290°WNW
Pressure: 29.83"   Gusts: NA
Location:  11.29°N, 125.02°E
Report Text: RPVM 301300Z 29003KT 9999 SCT020 BKN250 28/24 Q1010 A2984
Loading
Personal Weather Stations






























Interactive Weather Map
Tropical Storm Tracking
New forecast layout! Learn more

10-Day Weather Forecast

Advertisements
Track Severe Weather on mobile